createdAt,value
2024-02-29T00:02:19.469Z,51.28
2024-02-29T00:04:47.049Z,49.47
2024-02-29T00:07:13.678Z,49.08
2024-02-29T00:09:40.617Z,49.25
2024-02-29T00:12:07.489Z,54.17
2024-02-29T00:14:33.929Z,52.55
2024-02-29T00:17:02.355Z,53.45
2024-02-29T00:19:29.239Z,56.13
2024-02-29T00:21:55.957Z,51.65
2024-02-29T00:24:22.623Z,55.20
2024-02-29T00:26:49.152Z,55.35
2024-02-29T00:29:15.566Z,53.33
2024-02-29T00:31:45.872Z,53.15
2024-02-29T00:34:13.192Z,52.72
2024-02-29T00:36:39.857Z,53.03
2024-02-29T00:39:14.289Z,53.03
2024-02-29T00:41:41.651Z,51.38
2024-02-29T00:44:08.084Z,52.83
2024-02-29T00:46:34.593Z,57.03
2024-02-29T00:49:01.143Z,52.50
2024-02-29T00:51:27.626Z,52.72
2024-02-29T00:53:54.646Z,53.63
2024-02-29T00:56:21.093Z,53.35
2024-02-29T00:58:47.521Z,56.88
2024-02-29T01:01:14.099Z,54.35
2024-02-29T01:03:40.721Z,52.92
2024-02-29T01:06:08.283Z,52.13
2024-02-29T01:08:34.968Z,55.70
2024-02-29T01:11:01.468Z,48.22
2024-02-29T01:13:28.625Z,53.97
2024-02-29T01:15:55.358Z,55.05
2024-02-29T01:18:22.095Z,52.97
2024-02-29T01:20:48.919Z,52.85
2024-02-29T01:23:15.398Z,54.65
2024-02-29T01:25:41.914Z,51.60
2024-02-29T01:28:08.741Z,51.92
2024-02-29T01:30:35.300Z,53.63
2024-02-29T01:33:01.783Z,55.63
2024-02-29T01:35:28.246Z,54.50
2024-02-29T01:37:54.697Z,56.33
2024-02-29T01:40:21.409Z,50.45
2024-02-29T01:42:47.871Z,52.80
2024-02-29T01:45:17.794Z,52.63
2024-02-29T01:47:44.244Z,51.67
2024-02-29T01:50:13.354Z,51.22
2024-02-29T01:52:43.849Z,51.63
2024-02-29T01:55:11.545Z,50.25
2024-02-29T01:57:39.410Z,50.40
2024-02-29T02:00:06.933Z,49.80
2024-02-29T02:02:33.401Z,50.40
2024-02-29T02:04:59.852Z,51.40
2024-02-29T02:07:27.414Z,51.25
2024-02-29T02:09:54.264Z,51.33
2024-02-29T02:12:20.708Z,47.85
2024-02-29T02:14:47.256Z,50.60
2024-02-29T02:17:14.189Z,50.58
2024-02-29T02:19:41.458Z,48.45
2024-02-29T02:22:07.972Z,49.97
2024-02-29T02:24:35.625Z,48.92
2024-02-29T02:27:02.238Z,49.42
2024-02-29T02:29:28.812Z,50.95
2024-02-29T02:31:56.311Z,50.95
2024-02-29T02:34:22.905Z,50.92
2024-02-29T02:36:49.353Z,49.88
2024-02-29T02:39:16.167Z,50.92
2024-02-29T02:41:46.100Z,50.70
2024-02-29T02:44:13.326Z,51.70
2024-02-29T02:46:40.006Z,50.45
2024-02-29T02:49:06.619Z,50.08
2024-02-29T02:51:33.280Z,49.67
2024-02-29T02:54:00.023Z,50.55
2024-02-29T02:56:26.501Z,47.63
2024-02-29T02:58:52.990Z,49.95
2024-02-29T03:01:19.476Z,48.53
2024-02-29T03:03:46.761Z,49.90
2024-02-29T03:06:15.171Z,48.13
2024-02-29T03:08:41.880Z,48.15
2024-02-29T03:11:08.631Z,47.90
2024-02-29T03:13:35.174Z,45.83
2024-02-29T03:16:01.748Z,49.30
2024-02-29T03:18:28.212Z,49.42
2024-02-29T03:20:54.700Z,48.63
2024-02-29T03:23:21.833Z,49.42
2024-02-29T03:25:48.313Z,50.22
2024-02-29T03:28:14.888Z,47.60
2024-02-29T03:30:41.953Z,49.00
2024-02-29T03:33:08.861Z,47.47
2024-02-29T03:35:35.332Z,47.95
2024-02-29T03:38:01.965Z,47.92
2024-02-29T03:40:29.130Z,49.40
2024-02-29T03:42:55.779Z,48.13
2024-02-29T03:45:22.380Z,49.08
2024-02-29T03:47:49.863Z,50.22
2024-02-29T03:50:16.408Z,45.95
2024-02-29T03:52:42.874Z,49.47
2024-02-29T03:55:10.403Z,47.80
2024-02-29T03:57:37.171Z,48.28
2024-02-29T04:00:04.487Z,47.83
2024-02-29T04:02:30.996Z,50.92
2024-02-29T04:04:57.693Z,48.78
2024-02-29T04:07:24.147Z,49.45
2024-02-29T04:09:55.654Z,45.63
2024-02-29T04:12:22.335Z,47.67
2024-02-29T04:14:48.841Z,50.20
2024-02-29T04:17:17.222Z,49.35
2024-02-29T04:19:44.714Z,46.97
2024-02-29T04:22:11.285Z,47.55
2024-02-29T04:24:37.840Z,46.60
2024-02-29T04:27:04.889Z,47.60
2024-02-29T04:29:31.703Z,47.20
2024-02-29T04:31:58.340Z,46.65
2024-02-29T04:34:25.433Z,44.60
2024-02-29T04:36:51.988Z,46.53
2024-02-29T04:39:19.528Z,47.30
2024-02-29T04:41:46.650Z,43.88
2024-02-29T04:44:13.201Z,45.65
2024-02-29T04:46:39.622Z,46.75
2024-02-29T04:49:06.302Z,45.67
2024-02-29T04:51:32.780Z,46.25
2024-02-29T04:54:00.176Z,46.60
2024-02-29T04:56:26.749Z,43.55
2024-02-29T04:58:53.204Z,45.22
2024-02-29T05:01:19.915Z,40.25
2024-02-29T05:03:46.499Z,44.33
2024-02-29T05:06:17.481Z,41.50
2024-02-29T05:08:45.032Z,41.35
2024-02-29T05:11:11.689Z,43.33
2024-02-29T05:13:38.616Z,42.22
2024-02-29T05:16:06.137Z,40.55
2024-02-29T05:18:33.259Z,42.58
2024-02-29T05:21:00.319Z,44.47
2024-02-29T05:23:26.896Z,41.25
2024-02-29T05:25:53.459Z,46.13
2024-02-29T05:28:19.925Z,43.05
2024-02-29T05:30:46.733Z,41.25
2024-02-29T05:33:13.232Z,38.90
2024-02-29T05:35:39.754Z,40.97
2024-02-29T05:38:08.442Z,41.67
2024-02-29T05:40:35.018Z,43.78
2024-02-29T05:43:04.511Z,41.70
2024-02-29T05:45:31.130Z,42.00
2024-02-29T05:47:57.616Z,40.97
2024-02-29T05:50:24.217Z,42.70
2024-02-29T05:52:50.726Z,38.10
2024-02-29T05:55:17.283Z,37.97
2024-02-29T05:57:43.969Z,39.53
2024-02-29T06:00:11.804Z,40.03
2024-02-29T06:02:38.466Z,38.67
2024-02-29T06:05:07.052Z,40.20
2024-02-29T06:07:34.591Z,37.58
2024-02-29T06:10:02.961Z,38.78
2024-02-29T06:12:31.444Z,37.85
2024-02-29T06:14:58.313Z,38.50
2024-02-29T06:17:24.809Z,37.47
2024-02-29T06:19:51.325Z,37.33
2024-02-29T06:22:19.582Z,36.50
2024-02-29T06:24:46.258Z,37.47
2024-02-29T06:27:12.807Z,38.38
2024-02-29T06:29:39.311Z,38.92
2024-02-29T06:32:06.333Z,38.40
2024-02-29T06:34:33.584Z,36.28
2024-02-29T06:37:00.231Z,37.78
2024-02-29T06:39:26.790Z,38.50
2024-02-29T06:41:53.482Z,36.33
2024-02-29T06:44:20.091Z,36.38
2024-02-29T06:46:46.681Z,37.83
2024-02-29T06:49:13.246Z,38.25
2024-02-29T06:51:39.870Z,35.92
2024-02-29T06:54:06.645Z,37.38
2024-02-29T06:56:33.282Z,37.20
2024-02-29T06:58:59.780Z,36.42
2024-02-29T07:01:26.331Z,35.63
2024-02-29T07:03:53.091Z,36.00
2024-02-29T07:06:19.567Z,35.80
2024-02-29T07:08:47.296Z,37.92
2024-02-29T07:11:15.131Z,34.38
2024-02-29T07:13:41.736Z,33.88
2024-02-29T07:16:10.673Z,35.28
2024-02-29T07:18:37.790Z,34.83
2024-02-29T07:21:05.578Z,35.72
2024-02-29T07:23:32.845Z,35.03
2024-02-29T07:26:02.739Z,34.90
2024-02-29T07:28:29.199Z,37.05
2024-02-29T07:30:55.806Z,38.05
2024-02-29T07:33:22.265Z,34.65
2024-02-29T07:35:49.271Z,35.97
2024-02-29T07:38:16.096Z,35.33
2024-02-29T07:40:43.052Z,35.55
2024-02-29T07:43:11.159Z,36.03
2024-02-29T07:45:37.812Z,35.85
2024-02-29T07:48:04.807Z,35.85
2024-02-29T07:50:32.601Z,35.40
2024-02-29T07:52:59.085Z,34.60
2024-02-29T07:55:25.654Z,33.58
2024-02-29T07:57:52.245Z,35.40
2024-02-29T08:00:19.086Z,34.83
2024-02-29T08:02:47.522Z,32.90
2024-02-29T08:05:14.650Z,33.35
2024-02-29T08:07:41.265Z,34.38
2024-02-29T08:10:08.213Z,34.75
2024-02-29T08:12:34.838Z,31.38
2024-02-29T08:15:01.534Z,33.50
2024-02-29T08:17:29.795Z,33.85
2024-02-29T08:19:56.432Z,31.70
2024-02-29T08:22:23.621Z,32.08
2024-02-29T08:24:50.161Z,31.23
2024-02-29T08:27:16.643Z,32.58
2024-02-29T08:29:43.095Z,31.50
2024-02-29T08:32:11.589Z,32.13
2024-02-29T08:34:39.540Z,31.50
2024-02-29T08:37:06.469Z,30.58
2024-02-29T08:39:35.076Z,31.33
2024-02-29T08:42:01.857Z,31.27
2024-02-29T08:44:28.426Z,31.90
2024-02-29T08:46:54.988Z,31.05
2024-02-29T08:49:22.906Z,31.83
2024-02-29T08:51:49.616Z,31.10
2024-02-29T08:54:16.435Z,30.05
2024-02-29T08:56:42.905Z,31.58
2024-02-29T08:59:10.544Z,30.75
2024-02-29T09:01:37.066Z,30.98
2024-02-29T09:04:03.614Z,30.33
2024-02-29T09:06:36.205Z,29.88
2024-02-29T09:09:07.753Z,29.92
2024-02-29T09:11:34.267Z,29.50
2024-02-29T09:14:00.831Z,27.67
2024-02-29T09:16:27.338Z,27.92
2024-02-29T09:18:53.884Z,28.02
2024-02-29T09:21:20.326Z,27.45
2024-02-29T09:23:46.805Z,28.73
2024-02-29T09:26:17.177Z,27.55
2024-02-29T09:28:44.221Z,27.90
2024-02-29T09:31:14.600Z,27.85
2024-02-29T09:33:41.630Z,28.23
2024-02-29T09:36:09.857Z,27.45
2024-02-29T09:38:36.813Z,28.10
2024-02-29T09:41:13.160Z,26.15
2024-02-29T09:43:52.980Z,27.02
2024-02-29T09:46:20.356Z,26.52
2024-02-29T09:48:47.591Z,26.98
2024-02-29T09:51:17.925Z,26.75
2024-02-29T09:53:44.385Z,25.85
2024-02-29T09:56:13.211Z,25.30
2024-02-29T09:58:40.248Z,24.95
2024-02-29T10:01:07.371Z,25.52
2024-02-29T10:03:34.331Z,24.35
2024-02-29T10:06:01.602Z,23.75
2024-02-29T10:08:29.314Z,23.50
2024-02-29T10:10:56.170Z,23.52
2024-02-29T10:13:22.682Z,23.73
2024-02-29T10:15:52.565Z,22.73
2024-02-29T10:18:19.643Z,21.60
2024-02-29T10:20:46.166Z,20.73
2024-02-29T10:23:13.999Z,20.20
2024-02-29T10:25:42.111Z,20.90
2024-02-29T10:28:15.543Z,20.70
2024-02-29T10:30:42.311Z,22.17
2024-02-29T10:33:14.308Z,21.90
2024-02-29T10:35:41.044Z,22.23
2024-02-29T10:38:09.641Z,21.67
2024-02-29T10:40:36.469Z,22.80
2024-02-29T10:43:03.968Z,21.90
2024-02-29T10:45:37.405Z,21.27
2024-02-29T10:48:17.666Z,21.35
2024-02-29T10:51:00.892Z,20.60
2024-02-29T10:53:49.707Z,20.50
2024-02-29T10:56:24.339Z,19.95
2024-02-29T10:59:17.758Z,20.48
2024-02-29T11:01:46.157Z,20.23
2024-02-29T11:04:12.776Z,21.15
2024-02-29T11:06:47.215Z,20.25
2024-02-29T11:09:16.180Z,20.38
2024-02-29T11:11:44.964Z,19.42
2024-02-29T11:14:14.149Z,19.80
2024-02-29T11:16:47.135Z,19.47
2024-02-29T11:19:20.052Z,19.50
2024-02-29T11:21:47.067Z,19.02
2024-02-29T11:24:21.224Z,18.50
2024-02-29T11:26:55.817Z,19.85
2024-02-29T11:29:23.798Z,18.55
2024-02-29T11:31:57.842Z,18.85
2024-02-29T11:34:24.930Z,18.55
2024-02-29T11:36:52.820Z,18.60
2024-02-29T11:39:23.181Z,18.33
2024-02-29T11:42:04.087Z,18.33
2024-02-29T11:44:36.866Z,18.15
2024-02-29T11:47:03.677Z,17.77
2024-02-29T11:49:30.317Z,18.00
2024-02-29T11:51:57.188Z,18.13
2024-02-29T11:54:26.755Z,17.92
2024-02-29T11:56:55.595Z,18.50
2024-02-29T11:59:22.722Z,18.38
2024-02-29T12:01:49.445Z,18.35
2024-02-29T12:04:16.613Z,18.02
2024-02-29T12:06:45.592Z,16.83
2024-02-29T12:09:16.031Z,17.17
2024-02-29T12:11:44.363Z,17.95
2024-02-29T12:14:11.374Z,16.85
2024-02-29T12:16:40.417Z,16.75
2024-02-29T12:19:07.515Z,17.50
2024-02-29T12:21:36.221Z,16.95
2024-02-29T12:24:03.805Z,17.00
2024-02-29T12:26:30.586Z,17.50
2024-02-29T12:28:57.101Z,17.27
2024-02-29T12:31:23.865Z,17.10
2024-02-29T12:33:50.537Z,16.50
2024-02-29T12:36:17.562Z,16.83
2024-02-29T12:38:45.217Z,16.70
2024-02-29T12:41:13.090Z,16.98
2024-02-29T12:43:46.684Z,16.42
2024-02-29T12:46:15.841Z,15.70
2024-02-29T12:48:43.494Z,15.90
2024-02-29T12:51:10.730Z,15.82
2024-02-29T12:53:37.754Z,16.75
2024-02-29T12:56:05.655Z,16.58
2024-02-29T12:58:32.956Z,16.60
2024-02-29T13:01:07.906Z,16.30
2024-02-29T13:03:34.575Z,16.98
2024-02-29T13:06:01.269Z,16.88
2024-02-29T13:08:27.904Z,15.02
2024-02-29T13:10:54.422Z,15.73
2024-02-29T13:13:20.892Z,14.32
2024-02-29T13:15:47.492Z,14.40
2024-02-29T13:18:14.047Z,14.05
2024-02-29T13:20:41.261Z,14.27
2024-02-29T13:23:08.733Z,14.68
2024-02-29T13:25:36.563Z,16.20
2024-02-29T13:28:05.157Z,15.60
2024-02-29T13:30:31.870Z,14.43
2024-02-29T13:32:58.488Z,13.30
2024-02-29T13:35:24.977Z,14.32
2024-02-29T13:37:51.824Z,14.13
2024-02-29T13:40:18.577Z,15.52
2024-02-29T13:42:47.606Z,13.65
2024-02-29T13:45:14.091Z,14.18
2024-02-29T13:47:49.352Z,14.38
2024-02-29T13:50:16.480Z,14.57
2024-02-29T13:52:44.135Z,14.10
2024-02-29T13:55:11.389Z,14.15
2024-02-29T13:57:38.069Z,14.25
2024-02-29T14:00:09.627Z,13.77
2024-02-29T14:02:37.720Z,13.80
2024-02-29T14:05:04.327Z,14.55
2024-02-29T14:07:31.038Z,14.57
2024-02-29T14:09:57.782Z,14.30
2024-02-29T14:12:25.945Z,15.63
2024-02-29T14:14:52.884Z,15.40
2024-02-29T14:17:19.613Z,15.57
2024-02-29T14:19:46.204Z,14.43
2024-02-29T14:22:13.421Z,14.98
2024-02-29T14:24:40.307Z,15.50
2024-02-29T14:27:06.952Z,16.50
2024-02-29T14:29:33.408Z,17.17
2024-02-29T14:31:59.876Z,17.52
2024-02-29T14:34:26.572Z,17.00
2024-02-29T14:36:53.128Z,16.33
2024-02-29T14:39:21.045Z,16.83
2024-02-29T14:41:48.330Z,16.38
2024-02-29T14:44:15.118Z,15.98
2024-02-29T14:46:41.753Z,15.40
2024-02-29T14:49:08.426Z,16.20
2024-02-29T14:51:34.878Z,15.88
2024-02-29T14:54:01.454Z,15.52
2024-02-29T14:56:28.094Z,15.77
2024-02-29T14:58:58.048Z,16.15
2024-02-29T15:03:54.612Z,17.15
2024-02-29T15:06:21.246Z,18.53
2024-02-29T15:08:48.195Z,18.50
2024-02-29T15:11:14.827Z,20.05
2024-02-29T15:13:41.610Z,18.48
2024-02-29T15:16:08.447Z,19.73
2024-02-29T15:18:35.718Z,19.92
2024-02-29T15:21:02.365Z,20.08
2024-02-29T15:23:28.901Z,19.30
2024-02-29T15:25:56.483Z,20.60
2024-02-29T15:28:25.336Z,20.52
2024-02-29T15:30:52.081Z,19.90
2024-02-29T15:33:20.650Z,19.90
2024-02-29T15:35:47.984Z,20.05
2024-02-29T15:38:17.429Z,20.67
2024-02-29T15:40:47.538Z,21.13
2024-02-29T15:43:14.592Z,20.15
2024-02-29T15:45:41.226Z,19.63
2024-02-29T15:48:08.044Z,19.40
2024-02-29T15:50:34.547Z,19.65
2024-02-29T15:53:01.001Z,20.02
2024-02-29T15:55:27.699Z,19.38
2024-02-29T15:57:54.387Z,19.67
2024-02-29T16:00:25.466Z,19.48
2024-02-29T16:02:52.198Z,19.90
2024-02-29T16:05:21.850Z,20.95
2024-02-29T16:07:48.400Z,19.27
2024-02-29T16:10:15.061Z,18.92
2024-02-29T16:12:42.018Z,19.98
2024-02-29T16:15:09.121Z,19.02
2024-02-29T16:17:36.373Z,19.65
2024-02-29T16:20:03.967Z,20.02
2024-02-29T16:22:30.585Z,20.55
2024-02-29T16:24:57.075Z,19.50
2024-02-29T16:27:23.648Z,20.17
2024-02-29T16:29:50.118Z,19.70
2024-02-29T16:32:16.539Z,19.83
2024-02-29T16:34:43.063Z,19.45
2024-02-29T16:37:09.564Z,19.10
2024-02-29T16:39:36.392Z,19.35
2024-02-29T16:42:03.028Z,18.63
2024-02-29T16:44:30.699Z,19.58
2024-02-29T16:46:57.417Z,18.67
2024-02-29T16:49:23.968Z,22.50
2024-02-29T16:51:50.803Z,18.80
2024-02-29T16:54:17.378Z,18.77
2024-02-29T16:56:46.071Z,18.33
2024-02-29T16:59:13.100Z,17.33
2024-02-29T17:01:40.814Z,16.83
2024-02-29T17:04:08.279Z,14.90
2024-02-29T17:06:36.462Z,16.02
2024-02-29T17:09:06.444Z,15.18
2024-02-29T17:11:34.541Z,15.00
2024-02-29T17:14:01.141Z,19.42
2024-02-29T17:16:27.841Z,19.45
2024-02-29T17:18:54.358Z,18.80
2024-02-29T17:21:25.937Z,19.58
2024-02-29T17:23:55.799Z,20.33
2024-02-29T17:26:22.296Z,19.95
2024-02-29T17:28:52.178Z,20.60
2024-02-29T17:31:20.593Z,21.02
2024-02-29T17:33:47.990Z,20.50
2024-02-29T17:36:15.133Z,20.92
2024-02-29T17:38:44.677Z,20.50
2024-02-29T17:41:14.347Z,21.20
2024-02-29T17:43:41.364Z,20.75
2024-02-29T17:46:08.201Z,20.80
2024-02-29T17:48:35.995Z,20.25
2024-02-29T17:51:02.561Z,20.73
2024-02-29T17:53:29.098Z,20.92
2024-02-29T17:55:55.537Z,22.25
2024-02-29T17:58:23.130Z,22.02
2024-02-29T18:00:49.767Z,21.02
2024-02-29T18:03:16.262Z,21.83
2024-02-29T18:05:43.909Z,20.90
2024-02-29T18:08:10.491Z,22.00
2024-02-29T18:10:37.044Z,22.63
2024-02-29T18:13:03.878Z,22.17
2024-02-29T18:15:30.421Z,22.10
2024-02-29T18:17:56.985Z,20.95
2024-02-29T18:20:23.686Z,20.92
2024-02-29T18:22:50.267Z,20.80
2024-02-29T18:25:20.203Z,21.65
2024-02-29T18:27:47.110Z,21.35
2024-02-29T18:30:14.139Z,20.92
2024-02-29T18:32:40.728Z,20.92
2024-02-29T18:35:10.558Z,20.48
2024-02-29T18:37:38.287Z,21.63
2024-02-29T18:40:05.271Z,20.90
2024-02-29T18:42:31.846Z,21.48
2024-02-29T18:44:59.718Z,20.67
2024-02-29T18:47:26.381Z,21.70
2024-02-29T18:49:52.825Z,21.15
2024-02-29T18:52:20.302Z,20.98
2024-02-29T18:54:46.898Z,21.50
2024-02-29T18:57:13.384Z,21.35
2024-02-29T18:59:39.836Z,23.25
2024-02-29T19:02:08.521Z,23.30
2024-02-29T19:04:35.324Z,23.35
2024-02-29T19:07:01.946Z,24.80
2024-02-29T19:09:28.948Z,24.67
2024-02-29T19:11:55.366Z,25.55
2024-02-29T19:14:21.965Z,25.63
2024-02-29T19:16:48.528Z,26.40
2024-02-29T19:19:15.085Z,26.08
2024-02-29T19:21:41.667Z,27.13
2024-02-29T19:24:11.211Z,27.98
2024-02-29T19:26:38.631Z,28.02
2024-02-29T19:29:06.129Z,29.30
2024-02-29T19:31:33.968Z,29.75
2024-02-29T19:34:00.622Z,28.65
2024-02-29T19:36:28.090Z,30.02
2024-02-29T19:38:54.932Z,31.35
2024-02-29T19:41:21.502Z,29.67
2024-02-29T19:43:48.080Z,29.35
2024-02-29T19:46:14.768Z,28.60
2024-02-29T19:48:41.552Z,29.35
2024-02-29T19:51:08.465Z,29.70
2024-02-29T19:53:37.065Z,31.50
2024-02-29T19:56:03.758Z,31.25
2024-02-29T19:58:30.384Z,31.50
2024-02-29T20:01:01.814Z,31.42
2024-02-29T20:03:29.457Z,31.88
2024-02-29T20:05:56.843Z,31.50
2024-02-29T20:08:23.387Z,31.38
2024-02-29T20:10:49.914Z,31.85
2024-02-29T20:13:16.481Z,33.28
2024-02-29T20:15:43.418Z,33.47
2024-02-29T20:18:10.249Z,33.15
2024-02-29T20:20:36.794Z,32.95
2024-02-29T20:23:03.395Z,33.42
2024-02-29T20:25:30.560Z,33.70
2024-02-29T20:27:57.781Z,29.73
2024-02-29T20:30:24.500Z,34.05
2024-02-29T20:32:51.097Z,35.50
2024-02-29T20:35:18.023Z,34.75
2024-02-29T20:37:44.581Z,33.90
2024-02-29T20:40:11.797Z,34.38
2024-02-29T20:42:39.049Z,34.25
2024-02-29T20:45:05.953Z,35.85
2024-02-29T20:47:33.181Z,34.78
2024-02-29T20:49:59.829Z,35.65
2024-02-29T20:52:26.877Z,36.25
2024-02-29T20:54:53.810Z,35.30
2024-02-29T20:57:20.543Z,35.33
2024-02-29T20:59:47.486Z,36.75
2024-02-29T21:02:14.797Z,35.65
2024-02-29T21:04:41.500Z,35.45
2024-02-29T21:07:08.095Z,36.08
2024-02-29T21:09:35.731Z,36.75
2024-02-29T21:12:02.649Z,36.10
2024-02-29T21:14:29.171Z,35.25
2024-02-29T21:16:55.700Z,35.88
2024-02-29T21:19:22.254Z,35.42
2024-02-29T21:21:48.811Z,35.45
2024-02-29T21:24:15.651Z,37.38
2024-02-29T21:26:42.949Z,37.40
2024-02-29T21:29:09.793Z,36.88
2024-02-29T21:31:36.396Z,37.00
2024-02-29T21:34:03.178Z,36.55
2024-02-29T21:36:29.711Z,36.38
2024-02-29T21:38:56.223Z,37.30
2024-02-29T21:41:25.717Z,36.28
2024-02-29T21:43:52.827Z,36.72
2024-02-29T21:46:19.393Z,36.88
2024-02-29T21:48:47.040Z,35.30
2024-02-29T21:51:20.319Z,38.13
2024-02-29T21:53:48.253Z,38.45
2024-02-29T21:56:15.095Z,38.03
2024-02-29T21:58:44.440Z,37.00
2024-02-29T22:01:11.987Z,39.70
2024-02-29T22:03:38.848Z,37.80
2024-02-29T22:06:05.644Z,37.53
2024-02-29T22:08:32.084Z,37.42
2024-02-29T22:10:58.617Z,37.85
2024-02-29T22:13:25.143Z,38.28
2024-02-29T22:15:51.694Z,36.78
2024-02-29T22:18:18.303Z,39.47
2024-02-29T22:20:46.931Z,38.00
2024-02-29T22:23:14.798Z,37.60
2024-02-29T22:25:41.713Z,37.70
2024-02-29T22:28:08.373Z,37.78
2024-02-29T22:30:37.861Z,38.72
2024-02-29T22:33:04.805Z,38.33
2024-02-29T22:35:31.321Z,38.42
2024-02-29T22:37:57.820Z,38.08
2024-02-29T22:40:24.507Z,38.22
2024-02-29T22:42:51.061Z,37.22
2024-02-29T22:45:17.690Z,37.08
2024-02-29T22:47:44.523Z,38.53
2024-02-29T22:50:11.659Z,38.97
2024-02-29T22:52:38.610Z,37.45
2024-02-29T22:55:06.702Z,37.97
2024-02-29T22:57:34.329Z,37.67
2024-02-29T23:00:01.343Z,37.10
2024-02-29T23:02:28.896Z,37.75
2024-02-29T23:04:55.421Z,37.47
2024-02-29T23:07:21.924Z,39.47
2024-02-29T23:09:48.570Z,37.17
2024-02-29T23:12:15.029Z,39.40
2024-02-29T23:14:41.780Z,39.85
2024-02-29T23:17:08.228Z,40.17
2024-02-29T23:19:34.799Z,41.00
2024-02-29T23:22:01.286Z,39.50
2024-02-29T23:24:27.776Z,38.65
2024-02-29T23:26:54.314Z,39.15
2024-02-29T23:29:20.989Z,39.05
2024-02-29T23:31:47.466Z,40.75
2024-02-29T23:34:14.181Z,42.47
2024-02-29T23:36:42.078Z,38.65
2024-02-29T23:39:08.721Z,37.60
2024-02-29T23:41:35.384Z,42.20
2024-02-29T23:44:01.929Z,41.53
2024-02-29T23:46:28.799Z,42.28
2024-02-29T23:48:55.305Z,39.50
2024-02-29T23:51:21.830Z,39.13
2024-02-29T23:53:48.423Z,40.55
2024-02-29T23:56:15.339Z,39.90
2024-02-29T23:58:42.520Z,41.90
